sensor_id;sensor_type;location;lat;lon;timestamp;temperature;humidity
44477;DHT22;30180;44.788;10.366;2023-05-07T00:01:24;19.60;72.90
44477;DHT22;30180;44.788;10.366;2023-05-07T00:03:52;19.60;72.90
44477;DHT22;30180;44.788;10.366;2023-05-07T00:06:22;19.60;72.90
44477;DHT22;30180;44.788;10.366;2023-05-07T00:08:50;19.60;72.90
44477;DHT22;30180;44.788;10.366;2023-05-07T00:11:18;19.60;72.90
44477;DHT22;30180;44.788;10.366;2023-05-07T00:13:47;19.60;72.90
44477;DHT22;30180;44.788;10.366;2023-05-07T00:16:15;19.60;72.90
44477;DHT22;30180;44.788;10.366;2023-05-07T00:18:43;19.60;73.00
44477;DHT22;30180;44.788;10.366;2023-05-07T00:21:11;19.60;72.90
44477;DHT22;30180;44.788;10.366;2023-05-07T00:23:41;19.60;72.90
44477;DHT22;30180;44.788;10.366;2023-05-07T00:26:09;19.60;72.90
44477;DHT22;30180;44.788;10.366;2023-05-07T00:28:37;19.60;72.90
44477;DHT22;30180;44.788;10.366;2023-05-07T00:31:04;19.60;72.90
44477;DHT22;30180;44.788;10.366;2023-05-07T00:33:32;19.60;73.00
44477;DHT22;30180;44.788;10.366;2023-05-07T00:36:00;19.60;72.90
44477;DHT22;30180;44.788;10.366;2023-05-07T00:38:28;19.70;73.00
44477;DHT22;30180;44.788;10.366;2023-05-07T00:40:58;19.60;72.90
44477;DHT22;30180;44.788;10.366;2023-05-07T00:43:26;19.60;72.90
44477;DHT22;30180;44.788;10.366;2023-05-07T00:45:54;19.70;73.00
44477;DHT22;30180;44.788;10.366;2023-05-07T00:48:22;19.70;73.00
44477;DHT22;30180;44.788;10.366;2023-05-07T00:50:51;19.60;72.90
44477;DHT22;30180;44.788;10.366;2023-05-07T00:53:19;19.70;73.00
44477;DHT22;30180;44.788;10.366;2023-05-07T00:55:47;19.70;73.00
44477;DHT22;30180;44.788;10.366;2023-05-07T00:58:17;19.60;72.90
44477;DHT22;30180;44.788;10.366;2023-05-07T01:00:45;19.70;73.00
44477;DHT22;30180;44.788;10.366;2023-05-07T01:03:13;19.70;73.00
44477;DHT22;30180;44.788;10.366;2023-05-07T01:05:42;19.60;72.90
44477;DHT22;30180;44.788;10.366;2023-05-07T01:08:11;19.70;73.00
44477;DHT22;30180;44.788;10.366;2023-05-07T01:10:39;19.60;72.90
44477;DHT22;30180;44.788;10.366;2023-05-07T01:13:09;19.70;73.00
44477;DHT22;30180;44.788;10.366;2023-05-07T01:15:39;19.70;73.00
44477;DHT22;30180;44.788;10.366;2023-05-07T01:18:08;19.70;73.00
44477;DHT22;30180;44.788;10.366;2023-05-07T01:20:36;19.70;73.00
44477;DHT22;30180;44.788;10.366;2023-05-07T01:23:05;19.60;72.90
44477;DHT22;30180;44.788;10.366;2023-05-07T01:25:34;19.70;73.00
44477;DHT22;30180;44.788;10.366;2023-05-07T01:28:02;19.60;72.90
44477;DHT22;30180;44.788;10.366;2023-05-07T01:30:30;19.70;73.00
44477;DHT22;30180;44.788;10.366;2023-05-07T01:32:59;19.70;73.60
44477;DHT22;30180;44.788;10.366;2023-05-07T01:35:30;19.70;73.00
44477;DHT22;30180;44.788;10.366;2023-05-07T01:38:00;19.70;73.00
44477;DHT22;30180;44.788;10.366;2023-05-07T01:40:30;19.70;73.00
44477;DHT22;30180;44.788;10.366;2023-05-07T01:42:58;19.70;73.00
44477;DHT22;30180;44.788;10.366;2023-05-07T01:45:26;19.60;72.90
44477;DHT22;30180;44.788;10.366;2023-05-07T01:47:54;19.70;73.00
44477;DHT22;30180;44.788;10.366;2023-05-07T01:50:23;19.70;73.00
44477;DHT22;30180;44.788;10.366;2023-05-07T01:52:51;19.60;72.90
44477;DHT22;30180;44.788;10.366;2023-05-07T01:55:19;19.70;73.00
44477;DHT22;30180;44.788;10.366;2023-05-07T01:57:48;19.60;72.90
44477;DHT22;30180;44.788;10.366;2023-05-07T02:00:17;19.70;73.00
44477;DHT22;30180;44.788;10.366;2023-05-07T02:02:45;19.60;72.90
44477;DHT22;30180;44.788;10.366;2023-05-07T02:05:13;19.70;73.00
44477;DHT22;30180;44.788;10.366;2023-05-07T02:07:41;19.70;73.00
44477;DHT22;30180;44.788;10.366;2023-05-07T02:10:09;19.70;72.90
44477;DHT22;30180;44.788;10.366;2023-05-07T02:12:38;19.70;73.00
44477;DHT22;30180;44.788;10.366;2023-05-07T02:15:07;19.60;72.90
44477;DHT22;30180;44.788;10.366;2023-05-07T02:17:38;19.70;73.00
44477;DHT22;30180;44.788;10.366;2023-05-07T02:20:07;19.70;73.00
44477;DHT22;30180;44.788;10.366;2023-05-07T02:22:39;19.70;73.00
44477;DHT22;30180;44.788;10.366;2023-05-07T02:25:08;19.70;73.00
44477;DHT22;30180;44.788;10.366;2023-05-07T02:27:36;19.70;72.90
44477;DHT22;30180;44.788;10.366;2023-05-07T02:30:04;19.70;72.90
44477;DHT22;30180;44.788;10.366;2023-05-07T02:32:34;19.70;73.00
44477;DHT22;30180;44.788;10.366;2023-05-07T02:35:02;19.70;73.00
44477;DHT22;30180;44.788;10.366;2023-05-07T02:37:30;19.60;72.90
44477;DHT22;30180;44.788;10.366;2023-05-07T02:39:58;19.70;72.90
44477;DHT22;30180;44.788;10.366;2023-05-07T02:42:26;19.70;73.00
44477;DHT22;30180;44.788;10.366;2023-05-07T02:44:54;19.70;73.00
44477;DHT22;30180;44.788;10.366;2023-05-07T02:47:22;19.70;73.00
44477;DHT22;30180;44.788;10.366;2023-05-07T02:49:51;19.70;73.00
44477;DHT22;30180;44.788;10.366;2023-05-07T02:52:19;19.70;73.00
44477;DHT22;30180;44.788;10.366;2023-05-07T02:54:47;19.70;73.00
44477;DHT22;30180;44.788;10.366;2023-05-07T02:57:15;19.70;73.00
44477;DHT22;30180;44.788;10.366;2023-05-07T02:59:43;19.70;73.00
44477;DHT22;30180;44.788;10.366;2023-05-07T03:02:11;19.60;72.90
44477;DHT22;30180;44.788;10.366;2023-05-07T03:04:39;19.70;73.60
44477;DHT22;30180;44.788;10.366;2023-05-07T03:07:09;19.60;72.90
44477;DHT22;30180;44.788;10.366;2023-05-07T03:09:37;19.70;73.00
44477;DHT22;30180;44.788;10.366;2023-05-07T03:12:05;19.70;73.00
44477;DHT22;30180;44.788;10.366;2023-05-07T03:14:33;19.70;73.00
44477;DHT22;30180;44.788;10.366;2023-05-07T03:17:01;19.70;73.00
44477;DHT22;30180;44.788;10.366;2023-05-07T03:19:29;19.70;72.90
44477;DHT22;30180;44.788;10.366;2023-05-07T03:21:58;19.70;73.00
44477;DHT22;30180;44.788;10.366;2023-05-07T03:24:27;19.70;73.00
44477;DHT22;30180;44.788;10.366;2023-05-07T03:26:55;19.70;73.00
44477;DHT22;30180;44.788;10.366;2023-05-07T03:29:24;19.70;72.90
44477;DHT22;30180;44.788;10.366;2023-05-07T03:31:52;19.70;73.00
44477;DHT22;30180;44.788;10.366;2023-05-07T03:34:20;19.70;72.90
44477;DHT22;30180;44.788;10.366;2023-05-07T03:36:48;19.70;73.00
44477;DHT22;30180;44.788;10.366;2023-05-07T03:39:16;19.70;72.90
44477;DHT22;30180;44.788;10.366;2023-05-07T03:41:46;19.70;73.00
44477;DHT22;30180;44.788;10.366;2023-05-07T03:44:14;19.70;73.00
44477;DHT22;30180;44.788;10.366;2023-05-07T03:46:42;19.70;72.90
44477;DHT22;30180;44.788;10.366;2023-05-07T03:49:10;19.70;72.90
44477;DHT22;30180;44.788;10.366;2023-05-07T03:51:38;19.70;72.90
44477;DHT22;30180;44.788;10.366;2023-05-07T03:54:06;19.70;72.90
44477;DHT22;30180;44.788;10.366;2023-05-07T03:56:34;19.70;72.90
44477;DHT22;30180;44.788;10.366;2023-05-07T03:59:03;19.70;72.90
44477;DHT22;30180;44.788;10.366;2023-05-07T04:01:31;19.70;73.00
44477;DHT22;30180;44.788;10.366;2023-05-07T04:03:59;19.70;72.90
44477;DHT22;30180;44.788;10.366;2023-05-07T04:06:27;19.70;73.00
44477;DHT22;30180;44.788;10.366;2023-05-07T04:08:55;19.70;72.90
44477;DHT22;30180;44.788;10.366;2023-05-07T04:11:23;19.70;73.00
44477;DHT22;30180;44.788;10.366;2023-05-07T04:13:51;19.70;72.90
44477;DHT22;30180;44.788;10.366;2023-05-07T04:16:21;19.70;72.90
44477;DHT22;30180;44.788;10.366;2023-05-07T04:18:49;19.70;72.90
44477;DHT22;30180;44.788;10.366;2023-05-07T04:21:18;19.70;72.90
44477;DHT22;30180;44.788;10.366;2023-05-07T04:23:46;19.70;72.90
44477;DHT22;30180;44.788;10.366;2023-05-07T04:26:14;19.70;72.90
44477;DHT22;30180;44.788;10.366;2023-05-07T04:28:42;19.70;72.90
44477;DHT22;30180;44.788;10.366;2023-05-07T04:31:10;19.70;72.90
44477;DHT22;30180;44.788;10.366;2023-05-07T04:33:40;19.70;72.90
44477;DHT22;30180;44.788;10.366;2023-05-07T04:36:08;19.70;73.00
44477;DHT22;30180;44.788;10.366;2023-05-07T04:38:36;19.70;72.90
44477;DHT22;30180;44.788;10.366;2023-05-07T04:41:04;19.70;72.90
44477;DHT22;30180;44.788;10.366;2023-05-07T04:43:32;19.70;72.90
44477;DHT22;30180;44.788;10.366;2023-05-07T04:46:00;19.70;72.90
44477;DHT22;30180;44.788;10.366;2023-05-07T04:48:28;19.70;72.90
44477;DHT22;30180;44.788;10.366;2023-05-07T04:50:58;19.70;72.90
44477;DHT22;30180;44.788;10.366;2023-05-07T04:53:26;19.70;72.90
44477;DHT22;30180;44.788;10.366;2023-05-07T04:55:57;19.70;72.90
44477;DHT22;30180;44.788;10.366;2023-05-07T04:58:26;19.70;72.90
44477;DHT22;30180;44.788;10.366;2023-05-07T05:00:54;19.70;72.90
44477;DHT22;30180;44.788;10.366;2023-05-07T05:03:23;19.70;72.90
44477;DHT22;30180;44.788;10.366;2023-05-07T05:05:51;19.70;72.90
44477;DHT22;30180;44.788;10.366;2023-05-07T05:08:21;19.70;72.90
44477;DHT22;30180;44.788;10.366;2023-05-07T05:10:49;19.70;72.90
44477;DHT22;30180;44.788;10.366;2023-05-07T05:13:17;19.70;72.90
44477;DHT22;30180;44.788;10.366;2023-05-07T05:15:45;19.70;72.90
44477;DHT22;30180;44.788;10.366;2023-05-07T05:18:13;19.70;72.90
44477;DHT22;30180;44.788;10.366;2023-05-07T05:20:41;19.70;72.90
44477;DHT22;30180;44.788;10.366;2023-05-07T05:23:09;19.70;72.90
44477;DHT22;30180;44.788;10.366;2023-05-07T05:25:38;19.70;72.80
44477;DHT22;30180;44.788;10.366;2023-05-07T05:28:08;19.70;72.80
44477;DHT22;30180;44.788;10.366;2023-05-07T05:30:36;19.70;72.90
44477;DHT22;30180;44.788;10.366;2023-05-07T05:33:04;19.70;72.80
44477;DHT22;30180;44.788;10.366;2023-05-07T05:35:32;19.70;72.80
44477;DHT22;30180;44.788;10.366;2023-05-07T05:38:02;19.70;72.80
44477;DHT22;30180;44.788;10.366;2023-05-07T05:40:30;19.70;72.80
44477;DHT22;30180;44.788;10.366;2023-05-07T05:43:00;19.70;72.80
44477;DHT22;30180;44.788;10.366;2023-05-07T05:45:28;19.70;72.80
44477;DHT22;30180;44.788;10.366;2023-05-07T05:47:56;19.70;72.90
44477;DHT22;30180;44.788;10.366;2023-05-07T05:50:24;19.70;72.90
44477;DHT22;30180;44.788;10.366;2023-05-07T05:52:52;19.70;72.80
44477;DHT22;30180;44.788;10.366;2023-05-07T05:55:20;19.70;72.90
44477;DHT22;30180;44.788;10.366;2023-05-07T05:57:48;19.70;72.80
44477;DHT22;30180;44.788;10.366;2023-05-07T06:00:18;19.70;72.80
44477;DHT22;30180;44.788;10.366;2023-05-07T06:02:49;19.70;72.80
44477;DHT22;30180;44.788;10.366;2023-05-07T06:05:17;19.70;72.80
44477;DHT22;30180;44.788;10.366;2023-05-07T06:07:45;19.70;72.80
44477;DHT22;30180;44.788;10.366;2023-05-07T06:10:13;19.70;72.80
44477;DHT22;30180;44.788;10.366;2023-05-07T06:12:41;19.70;72.80
44477;DHT22;30180;44.788;10.366;2023-05-07T06:15:09;19.70;72.90
44477;DHT22;30180;44.788;10.366;2023-05-07T06:17:39;19.70;72.80
44477;DHT22;30180;44.788;10.366;2023-05-07T06:20:07;19.70;72.90
44477;DHT22;30180;44.788;10.366;2023-05-07T06:22:35;19.70;72.80
44477;DHT22;30180;44.788;10.366;2023-05-07T06:25:04;19.70;72.80
44477;DHT22;30180;44.788;10.366;2023-05-07T06:27:32;19.70;72.80
44477;DHT22;30180;44.788;10.366;2023-05-07T06:30:00;19.70;72.70
44477;DHT22;30180;44.788;10.366;2023-05-07T06:32:28;19.70;72.70
44477;DHT22;30180;44.788;10.366;2023-05-07T06:34:57;19.70;72.70
44477;DHT22;30180;44.788;10.366;2023-05-07T06:37:25;19.70;72.80
44477;DHT22;30180;44.788;10.366;2023-05-07T06:39:53;19.70;72.80
44477;DHT22;30180;44.788;10.366;2023-05-07T06:42:23;19.70;72.80
44477;DHT22;30180;44.788;10.366;2023-05-07T06:44:51;19.70;72.80
44477;DHT22;30180;44.788;10.366;2023-05-07T06:47:19;19.70;72.80
44477;DHT22;30180;44.788;10.366;2023-05-07T06:49:47;19.70;72.70
44477;DHT22;30180;44.788;10.366;2023-05-07T06:52:16;19.60;72.70
44477;DHT22;30180;44.788;10.366;2023-05-07T06:54:44;19.70;72.80
44477;DHT22;30180;44.788;10.366;2023-05-07T06:57:12;19.70;72.70
44477;DHT22;30180;44.788;10.366;2023-05-07T06:59:40;19.70;72.80
44477;DHT22;30180;44.788;10.366;2023-05-07T07:02:08;19.60;72.70
44477;DHT22;30180;44.788;10.366;2023-05-07T07:04:36;19.70;72.70
44477;DHT22;30180;44.788;10.366;2023-05-07T07:07:05;19.70;72.80
44477;DHT22;30180;44.788;10.366;2023-05-07T07:09:34;19.70;72.80
44477;DHT22;30180;44.788;10.366;2023-05-07T07:12:03;19.70;72.80
44477;DHT22;30180;44.788;10.366;2023-05-07T07:14:31;19.70;72.80
44477;DHT22;30180;44.788;10.366;2023-05-07T07:16:59;19.70;72.80
44477;DHT22;30180;44.788;10.366;2023-05-07T07:19:27;19.70;72.80
44477;DHT22;30180;44.788;10.366;2023-05-07T07:21:55;19.70;72.70
44477;DHT22;30180;44.788;10.366;2023-05-07T07:24:23;19.70;72.70
44477;DHT22;30180;44.788;10.366;2023-05-07T07:26:52;19.70;72.70
44477;DHT22;30180;44.788;10.366;2023-05-07T07:29:21;19.70;72.70
44477;DHT22;30180;44.788;10.366;2023-05-07T07:31:52;19.70;72.70
44477;DHT22;30180;44.788;10.366;2023-05-07T07:34:20;19.70;72.70
44477;DHT22;30180;44.788;10.366;2023-05-07T07:36:48;19.70;72.70
44477;DHT22;30180;44.788;10.366;2023-05-07T07:39:16;19.70;72.70
44477;DHT22;30180;44.788;10.366;2023-05-07T07:41:44;19.70;72.70
44477;DHT22;30180;44.788;10.366;2023-05-07T07:44:13;19.70;72.70
44477;DHT22;30180;44.788;10.366;2023-05-07T07:46:42;19.70;72.70
44477;DHT22;30180;44.788;10.366;2023-05-07T07:49:10;19.70;72.70
44477;DHT22;30180;44.788;10.366;2023-05-07T07:51:38;19.70;72.70
44477;DHT22;30180;44.788;10.366;2023-05-07T07:54:08;19.70;72.70
44477;DHT22;30180;44.788;10.366;2023-05-07T07:56:36;19.70;72.70
44477;DHT22;30180;44.788;10.366;2023-05-07T07:59:04;19.70;72.70
44477;DHT22;30180;44.788;10.366;2023-05-07T08:01:33;19.70;72.70
44477;DHT22;30180;44.788;10.366;2023-05-07T08:04:01;19.70;72.70
44477;DHT22;30180;44.788;10.366;2023-05-07T08:06:32;19.70;72.70
44477;DHT22;30180;44.788;10.366;2023-05-07T08:09:00;19.70;72.70
44477;DHT22;30180;44.788;10.366;2023-05-07T08:11:28;19.70;72.70
44477;DHT22;30180;44.788;10.366;2023-05-07T08:13:56;19.70;72.70
44477;DHT22;30180;44.788;10.366;2023-05-07T08:16:24;19.70;72.70
44477;DHT22;30180;44.788;10.366;2023-05-07T08:18:54;19.70;72.60
44477;DHT22;30180;44.788;10.366;2023-05-07T08:21:22;19.70;72.70
44477;DHT22;30180;44.788;10.366;2023-05-07T08:23:50;19.70;72.60
44477;DHT22;30180;44.788;10.366;2023-05-07T08:26:18;19.70;72.60
44477;DHT22;30180;44.788;10.366;2023-05-07T08:28:47;19.70;72.60
44477;DHT22;30180;44.788;10.366;2023-05-07T08:31:15;19.70;72.60
44477;DHT22;30180;44.788;10.366;2023-05-07T08:33:43;19.70;72.60
44477;DHT22;30180;44.788;10.366;2023-05-07T08:36:12;19.70;72.60
44477;DHT22;30180;44.788;10.366;2023-05-07T08:38:40;19.70;72.60
44477;DHT22;30180;44.788;10.366;2023-05-07T08:41:10;19.70;72.60
44477;DHT22;30180;44.788;10.366;2023-05-07T08:43:39;19.70;72.60
44477;DHT22;30180;44.788;10.366;2023-05-07T08:46:08;19.70;72.60
44477;DHT22;30180;44.788;10.366;2023-05-07T08:48:36;19.70;72.60
44477;DHT22;30180;44.788;10.366;2023-05-07T08:51:05;19.70;72.60
44477;DHT22;30180;44.788;10.366;2023-05-07T08:53:34;19.70;72.60
44477;DHT22;30180;44.788;10.366;2023-05-07T08:56:03;19.70;72.60
44477;DHT22;30180;44.788;10.366;2023-05-07T08:58:31;19.70;72.60
44477;DHT22;30180;44.788;10.366;2023-05-07T09:00:59;19.70;72.50
44477;DHT22;30180;44.788;10.366;2023-05-07T09:03:28;19.70;72.60
44477;DHT22;30180;44.788;10.366;2023-05-07T09:05:58;19.70;72.60
44477;DHT22;30180;44.788;10.366;2023-05-07T09:08:26;19.70;72.60
44477;DHT22;30180;44.788;10.366;2023-05-07T09:10:55;19.70;72.60
44477;DHT22;30180;44.788;10.366;2023-05-07T09:13:23;19.70;72.60
44477;DHT22;30180;44.788;10.366;2023-05-07T09:15:52;19.70;72.70
44477;DHT22;30180;44.788;10.366;2023-05-07T09:18:20;19.70;72.60
44477;DHT22;30180;44.788;10.366;2023-05-07T09:20:48;19.70;72.50
44477;DHT22;30180;44.788;10.366;2023-05-07T09:23:16;19.70;72.50
44477;DHT22;30180;44.788;10.366;2023-05-07T09:25:44;19.70;72.60
44477;DHT22;30180;44.788;10.366;2023-05-07T09:28:13;19.70;72.50
44477;DHT22;30180;44.788;10.366;2023-05-07T09:30:41;19.70;72.50
44477;DHT22;30180;44.788;10.366;2023-05-07T09:33:09;19.70;72.50
44477;DHT22;30180;44.788;10.366;2023-05-07T09:35:37;19.80;72.60
44477;DHT22;30180;44.788;10.366;2023-05-07T09:38:05;19.70;72.50
44477;DHT22;30180;44.788;10.366;2023-05-07T09:40:33;19.70;72.50
44477;DHT22;30180;44.788;10.366;2023-05-07T09:43:08;19.70;72.50
44477;DHT22;30180;44.788;10.366;2023-05-07T09:45:37;19.70;72.50
44477;DHT22;30180;44.788;10.366;2023-05-07T09:48:06;19.70;72.50
44477;DHT22;30180;44.788;10.366;2023-05-07T09:50:35;19.70;72.60
44477;DHT22;30180;44.788;10.366;2023-05-07T09:53:04;19.80;72.60
44477;DHT22;30180;44.788;10.366;2023-05-07T09:55:32;19.70;72.60
44477;DHT22;30180;44.788;10.366;2023-05-07T09:58:00;19.70;72.50
44477;DHT22;30180;44.788;10.366;2023-05-07T10:00:29;19.70;72.60
44477;DHT22;30180;44.788;10.366;2023-05-07T10:02:59;19.70;72.50
44477;DHT22;30180;44.788;10.366;2023-05-07T10:05:28;19.70;72.50
44477;DHT22;30180;44.788;10.366;2023-05-07T10:07:56;19.80;72.60
44477;DHT22;30180;44.788;10.366;2023-05-07T10:10:25;19.70;72.50
44477;DHT22;30180;44.788;10.366;2023-05-07T10:12:53;19.70;72.50
44477;DHT22;30180;44.788;10.366;2023-05-07T10:15:22;19.80;72.60
44477;DHT22;30180;44.788;10.366;2023-05-07T10:17:51;19.80;72.60
44477;DHT22;30180;44.788;10.366;2023-05-07T10:20:22;19.70;72.60
44477;DHT22;30180;44.788;10.366;2023-05-07T10:22:50;19.70;72.50
44477;DHT22;30180;44.788;10.366;2023-05-07T10:25:20;19.70;72.60
44477;DHT22;30180;44.788;10.366;2023-05-07T10:27:49;19.80;72.60
44477;DHT22;30180;44.788;10.366;2023-05-07T10:30:24;19.80;72.60
44477;DHT22;30180;44.788;10.366;2023-05-07T10:32:59;19.70;72.50
44477;DHT22;30180;44.788;10.366;2023-05-07T10:35:36;19.80;72.60
44477;DHT22;30180;44.788;10.366;2023-05-07T10:38:05;19.80;72.60
44477;DHT22;30180;44.788;10.366;2023-05-07T10:40:33;19.80;72.60
44477;DHT22;30180;44.788;10.366;2023-05-07T10:43:01;19.80;72.60
44477;DHT22;30180;44.788;10.366;2023-05-07T10:45:35;19.80;72.60
44477;DHT22;30180;44.788;10.366;2023-05-07T10:48:10;19.70;72.50
44477;DHT22;30180;44.788;10.366;2023-05-07T10:53:39;19.70;72.60
44477;DHT22;30180;44.788;10.366;2023-05-07T10:56:26;19.70;72.60
44477;DHT22;30180;44.788;10.366;2023-05-07T11:01:49;19.80;72.60
44477;DHT22;30180;44.788;10.366;2023-05-07T11:04:17;19.70;72.60
44477;DHT22;30180;44.788;10.366;2023-05-07T11:07:10;19.70;72.50
44477;DHT22;30180;44.788;10.366;2023-05-07T11:10:04;19.80;72.60
44477;DHT22;30180;44.788;10.366;2023-05-07T11:15:35;19.70;72.60
44477;DHT22;30180;44.788;10.366;2023-05-07T11:18:03;19.80;72.60
44477;DHT22;30180;44.788;10.366;2023-05-07T11:20:50;19.80;72.60
44477;DHT22;30180;44.788;10.366;2023-05-07T11:26:09;19.70;72.60
44477;DHT22;30180;44.788;10.366;2023-05-07T11:28:39;19.70;72.60
44477;DHT22;30180;44.788;10.366;2023-05-07T11:31:07;19.80;72.60
44477;DHT22;30180;44.788;10.366;2023-05-07T11:33:35;19.70;72.60
44477;DHT22;30180;44.788;10.366;2023-05-07T11:36:04;19.70;72.60
44477;DHT22;30180;44.788;10.366;2023-05-07T11:38:34;19.70;72.60
44477;DHT22;30180;44.788;10.366;2023-05-07T11:41:03;19.70;72.60
44477;DHT22;30180;44.788;10.366;2023-05-07T11:43:33;19.70;72.60
44477;DHT22;30180;44.788;10.366;2023-05-07T11:46:05;19.70;72.50
44477;DHT22;30180;44.788;10.366;2023-05-07T11:48:34;19.70;72.60
44477;DHT22;30180;44.788;10.366;2023-05-07T11:51:03;19.70;72.60
44477;DHT22;30180;44.788;10.366;2023-05-07T11:53:35;19.70;72.60
44477;DHT22;30180;44.788;10.366;2023-05-07T11:56:07;19.80;72.60
44477;DHT22;30180;44.788;10.366;2023-05-07T11:58:36;19.70;72.60
44477;DHT22;30180;44.788;10.366;2023-05-07T12:01:06;19.70;72.50
44477;DHT22;30180;44.788;10.366;2023-05-07T12:03:35;19.70;72.50
44477;DHT22;30180;44.788;10.366;2023-05-07T12:06:05;19.70;72.60
44477;DHT22;30180;44.788;10.366;2023-05-07T12:08:35;19.70;72.50
44477;DHT22;30180;44.788;10.366;2023-05-07T12:11:03;19.70;72.50
44477;DHT22;30180;44.788;10.366;2023-05-07T12:13:34;19.70;72.60
44477;DHT22;30180;44.788;10.366;2023-05-07T12:16:05;19.70;72.50
44477;DHT22;30180;44.788;10.366;2023-05-07T12:18:36;19.70;72.60
44477;DHT22;30180;44.788;10.366;2023-05-07T12:21:05;19.70;72.50
44477;DHT22;30180;44.788;10.366;2023-05-07T12:23:34;19.70;72.50
44477;DHT22;30180;44.788;10.366;2023-05-07T12:26:02;19.70;72.50
44477;DHT22;30180;44.788;10.366;2023-05-07T12:28:36;19.80;72.60
44477;DHT22;30180;44.788;10.366;2023-05-07T12:31:06;19.70;72.60
44477;DHT22;30180;44.788;10.366;2023-05-07T12:33:35;19.80;72.60
44477;DHT22;30180;44.788;10.366;2023-05-07T12:36:04;19.70;72.50
44477;DHT22;30180;44.788;10.366;2023-05-07T12:38:34;19.80;72.60
44477;DHT22;30180;44.788;10.366;2023-05-07T12:41:03;19.80;72.60
44477;DHT22;30180;44.788;10.366;2023-05-07T12:43:31;19.70;72.50
44477;DHT22;30180;44.788;10.366;2023-05-07T12:45:59;19.80;72.60
44477;DHT22;30180;44.788;10.366;2023-05-07T12:48:29;19.80;72.60
44477;DHT22;30180;44.788;10.366;2023-05-07T12:50:58;19.80;72.60
44477;DHT22;30180;44.788;10.366;2023-05-07T12:53:27;19.80;72.60
44477;DHT22;30180;44.788;10.366;2023-05-07T12:55:55;19.80;72.60
44477;DHT22;30180;44.788;10.366;2023-05-07T12:58:24;19.80;72.60
44477;DHT22;30180;44.788;10.366;2023-05-07T13:00:53;19.80;73.20
44477;DHT22;30180;44.788;10.366;2023-05-07T13:03:22;19.80;72.60
44477;DHT22;30180;44.788;10.366;2023-05-07T13:05:52;19.70;72.50
44477;DHT22;30180;44.788;10.366;2023-05-07T13:08:28;19.80;72.60
44477;DHT22;30180;44.788;10.366;2023-05-07T13:10:57;19.80;72.60
44477;DHT22;30180;44.788;10.366;2023-05-07T13:13:26;19.70;72.50
44477;DHT22;30180;44.788;10.366;2023-05-07T13:15:58;19.80;72.60
44477;DHT22;30180;44.788;10.366;2023-05-07T13:18:29;19.70;72.50
44477;DHT22;30180;44.788;10.366;2023-05-07T13:20:59;19.80;72.60
44477;DHT22;30180;44.788;10.366;2023-05-07T13:23:28;19.70;72.50
44477;DHT22;30180;44.788;10.366;2023-05-07T13:25:56;19.80;72.60
44477;DHT22;30180;44.788;10.366;2023-05-07T13:28:24;19.80;72.60
44477;DHT22;30180;44.788;10.366;2023-05-07T13:30:52;19.70;72.50
44477;DHT22;30180;44.788;10.366;2023-05-07T13:33:21;19.80;72.60
44477;DHT22;30180;44.788;10.366;2023-05-07T13:35:50;19.80;72.60
44477;DHT22;30180;44.788;10.366;2023-05-07T13:38:20;19.80;72.60
44477;DHT22;30180;44.788;10.366;2023-05-07T13:40:50;19.80;72.60
44477;DHT22;30180;44.788;10.366;2023-05-07T13:43:18;19.80;72.60
44477;DHT22;30180;44.788;10.366;2023-05-07T13:45:46;19.80;72.60
44477;DHT22;30180;44.788;10.366;2023-05-07T13:48:14;19.80;72.60
44477;DHT22;30180;44.788;10.366;2023-05-07T13:50:42;19.80;72.60
44477;DHT22;30180;44.788;10.366;2023-05-07T13:53:11;19.80;72.60
44477;DHT22;30180;44.788;10.366;2023-05-07T13:55:40;19.80;72.60
44477;DHT22;30180;44.788;10.366;2023-05-07T13:58:08;19.80;72.60
44477;DHT22;30180;44.788;10.366;2023-05-07T14:00:36;19.80;72.60
44477;DHT22;30180;44.788;10.366;2023-05-07T14:03:05;19.80;72.60
44477;DHT22;30180;44.788;10.366;2023-05-07T14:05:33;19.80;72.60
44477;DHT22;30180;44.788;10.366;2023-05-07T14:08:02;19.80;72.50
44477;DHT22;30180;44.788;10.366;2023-05-07T14:10:31;19.80;72.50
44477;DHT22;30180;44.788;10.366;2023-05-07T14:13:02;19.80;72.50
44477;DHT22;30180;44.788;10.366;2023-05-07T14:15:31;19.80;72.50
44477;DHT22;30180;44.788;10.366;2023-05-07T14:17:59;19.80;72.50
44477;DHT22;30180;44.788;10.366;2023-05-07T14:20:28;19.80;72.50
44477;DHT22;30180;44.788;10.366;2023-05-07T14:22:57;19.80;72.50
44477;DHT22;30180;44.788;10.366;2023-05-07T14:25:25;19.80;72.50
44477;DHT22;30180;44.788;10.366;2023-05-07T14:27:53;19.80;72.50
44477;DHT22;30180;44.788;10.366;2023-05-07T14:30:22;19.80;72.50
44477;DHT22;30180;44.788;10.366;2023-05-07T14:32:51;19.80;72.50
44477;DHT22;30180;44.788;10.366;2023-05-07T14:35:19;19.80;72.50
44477;DHT22;30180;44.788;10.366;2023-05-07T14:37:48;19.80;72.50
44477;DHT22;30180;44.788;10.366;2023-05-07T14:40:16;19.80;72.50
44477;DHT22;30180;44.788;10.366;2023-05-07T14:42:43;19.80;72.50
44477;DHT22;30180;44.788;10.366;2023-05-07T14:45:11;19.90;72.60
44477;DHT22;30180;44.788;10.366;2023-05-07T14:47:41;19.80;72.50
44477;DHT22;30180;44.788;10.366;2023-05-07T14:50:09;19.80;72.50
44477;DHT22;30180;44.788;10.366;2023-05-07T14:52:37;19.80;72.50
44477;DHT22;30180;44.788;10.366;2023-05-07T14:55:05;19.90;72.50
44477;DHT22;30180;44.788;10.366;2023-05-07T14:57:33;19.90;72.60
44477;DHT22;30180;44.788;10.366;2023-05-07T15:00:01;19.90;72.50
44477;DHT22;30180;44.788;10.366;2023-05-07T15:02:31;19.90;72.50
44477;DHT22;30180;44.788;10.366;2023-05-07T15:05:01;19.90;72.50
44477;DHT22;30180;44.788;10.366;2023-05-07T15:07:29;19.80;72.50
44477;DHT22;30180;44.788;10.366;2023-05-07T15:09:59;19.80;72.50
44477;DHT22;30180;44.788;10.366;2023-05-07T15:12:27;19.80;72.50
44477;DHT22;30180;44.788;10.366;2023-05-07T15:14:55;19.80;72.50
44477;DHT22;30180;44.788;10.366;2023-05-07T15:17:23;19.90;72.50
44477;DHT22;30180;44.788;10.366;2023-05-07T15:19:51;19.90;72.50
44477;DHT22;30180;44.788;10.366;2023-05-07T15:22:21;19.90;72.50
44477;DHT22;30180;44.788;10.366;2023-05-07T15:24:49;19.90;72.50
44477;DHT22;30180;44.788;10.366;2023-05-07T15:27:17;19.90;72.50
44477;DHT22;30180;44.788;10.366;2023-05-07T15:29:45;19.90;72.50
44477;DHT22;30180;44.788;10.366;2023-05-07T15:32:13;19.90;72.60
44477;DHT22;30180;44.788;10.366;2023-05-07T15:34:41;19.90;72.50
44477;DHT22;30180;44.788;10.366;2023-05-07T15:37:09;19.80;72.50